Terminal Aerodrome Forecast
Issued by NWS

Home | Current Version | Previous Version | Text Only | Print | Product List | Glossary Off
Versions: 1 2 3 4 5 6 7 8 9 10 11 12 13 14 15 16 17

000
FTUS43 KGRB 260128 AAA
TAFMTW
TAF AMD
KMTW 260128Z 2601/2624 30010KT P6SM SCT025 OVC035
      TEMPO 2601/2604 BKN023
     FM260600 30005KT P6SM SCT035
     FM261400 33006KT P6SM SCT030 BKN040
     FM262000 33006KT P6SM SCT050=

USA.gov is the U.S. government's official web portal to all federal, state and local government web resources and services.